createdAt,value
2023-01-13T00:03:12.913Z,1017.28
2023-01-13T00:08:20.089Z,1017.35
2023-01-13T00:13:27.331Z,1017.32
2023-01-13T00:18:34.612Z,1017.04
2023-01-13T00:23:41.814Z,1016.95
2023-01-13T00:28:49.027Z,1016.73
2023-01-13T00:33:56.316Z,1016.73
2023-01-13T00:39:03.530Z,1016.75
2023-01-13T00:44:10.739Z,1016.61
2023-01-13T00:49:17.960Z,1016.51
2023-01-13T00:54:25.160Z,1016.63
2023-01-13T00:59:32.486Z,1016.48
2023-01-13T01:04:39.857Z,1016.50
2023-01-13T01:09:47.063Z,1016.45
2023-01-13T01:14:54.270Z,1016.38
2023-01-13T01:20:01.516Z,1016.40
2023-01-13T01:25:08.773Z,1016.49
2023-01-13T01:30:16.039Z,1016.33
2023-01-13T01:35:23.306Z,1016.40
2023-01-13T01:40:30.496Z,1016.39
2023-01-13T01:45:37.721Z,1016.46
2023-01-13T01:50:45.028Z,1016.34
2023-01-13T01:55:52.220Z,1016.25
2023-01-13T02:00:59.526Z,1016.50
2023-01-13T02:06:06.647Z,1016.37
2023-01-13T02:11:13.914Z,1016.39
2023-01-13T02:16:21.186Z,1016.40
2023-01-13T02:21:28.357Z,1016.57
2023-01-13T02:26:35.539Z,1016.35
2023-01-13T02:31:42.919Z,1016.20
2023-01-13T02:36:50.077Z,1016.12
2023-01-13T02:41:57.285Z,1016.09
2023-01-13T02:47:04.499Z,1016.20
2023-01-13T02:52:11.811Z,1016.02
2023-01-13T02:57:18.975Z,1015.89
2023-01-13T03:02:26.319Z,1015.93
2023-01-13T03:07:33.361Z,1015.87
2023-01-13T03:12:40.501Z,1015.74
2023-01-13T03:17:47.755Z,1015.61
2023-01-13T03:22:54.944Z,1015.58
2023-01-13T03:28:02.159Z,1015.63
2023-01-13T03:33:09.367Z,1015.63
2023-01-13T03:38:16.633Z,1015.63
2023-01-13T03:43:23.878Z,1015.64
2023-01-13T03:48:31.079Z,1015.65
2023-01-13T03:53:38.425Z,1015.72
2023-01-13T03:58:45.696Z,1015.80
2023-01-13T04:03:52.896Z,1015.85
2023-01-13T04:09:00.030Z,1015.90
2023-01-13T04:14:07.199Z,1015.53
2023-01-13T04:19:14.391Z,1015.74
2023-01-13T04:24:21.618Z,1015.72
2023-01-13T04:29:28.814Z,1015.59
2023-01-13T04:34:35.977Z,1015.58
2023-01-13T04:39:43.233Z,1015.29
2023-01-13T04:44:50.356Z,1015.34
2023-01-13T04:49:57.601Z,1015.41
2023-01-13T04:55:04.858Z,1015.31
2023-01-13T05:00:12.018Z,1015.36
2023-01-13T05:05:19.280Z,1015.34
2023-01-13T05:10:26.429Z,1015.45
2023-01-13T05:15:33.748Z,1015.49
2023-01-13T05:20:40.811Z,1015.53
2023-01-13T05:25:48.101Z,1015.62
2023-01-13T05:30:55.303Z,1015.64
2023-01-13T05:36:02.488Z,1015.70
2023-01-13T05:41:09.725Z,1015.52
2023-01-13T05:46:17.011Z,1015.37
2023-01-13T05:51:24.284Z,1015.29
2023-01-13T05:56:31.518Z,1015.30
2023-01-13T06:01:38.711Z,1015.31
2023-01-13T06:06:45.929Z,1015.31
2023-01-13T06:11:53.329Z,1015.33
2023-01-13T06:17:00.662Z,1015.35
2023-01-13T06:22:07.838Z,1015.48
2023-01-13T06:27:15.033Z,1015.40
2023-01-13T06:32:22.244Z,1015.37
2023-01-13T06:37:29.466Z,1015.09
2023-01-13T06:42:36.722Z,1015.15
2023-01-13T06:47:43.865Z,1015.17
2023-01-13T06:52:51.063Z,1015.10
2023-01-13T06:57:58.301Z,1015.03
2023-01-13T07:03:07.032Z,1015.13
2023-01-13T07:08:12.589Z,1015.40
2023-01-13T07:13:20.016Z,1015.41
2023-01-13T07:18:27.117Z,1015.18
2023-01-13T07:23:34.286Z,1015.13
2023-01-13T07:28:41.546Z,1015.39
2023-01-13T07:33:48.706Z,1015.41
2023-01-13T07:38:55.850Z,1015.38
2023-01-13T07:44:03.061Z,1015.28
2023-01-13T07:49:10.202Z,1015.15
2023-01-13T07:54:19.318Z,1015.33
2023-01-13T07:59:24.631Z,1015.35
2023-01-13T08:04:31.816Z,1015.48
2023-01-13T08:09:39.035Z,1015.65
2023-01-13T08:14:46.274Z,1015.60
2023-01-13T08:19:53.482Z,1015.41
2023-01-13T08:25:00.641Z,1015.49
2023-01-13T08:30:07.884Z,1015.37
2023-01-13T08:35:15.082Z,1015.36
2023-01-13T08:40:22.376Z,1015.10
2023-01-13T08:45:29.628Z,1014.96
2023-01-13T08:50:36.834Z,1015.09
2023-01-13T08:55:44.105Z,1015.11
2023-01-13T09:00:51.314Z,1015.14
2023-01-13T09:05:58.515Z,1015.28
2023-01-13T09:11:05.992Z,1015.55
2023-01-13T09:16:13.333Z,1015.14
2023-01-13T09:21:20.421Z,1015.39
2023-01-13T09:26:27.619Z,1015.59
2023-01-13T09:31:34.935Z,1015.78
2023-01-13T09:36:42.012Z,1015.49
2023-01-13T09:41:49.171Z,1015.42
2023-01-13T09:46:56.374Z,1015.29
2023-01-13T09:52:03.587Z,1015.08
2023-01-13T09:57:10.823Z,1015.73
2023-01-13T10:02:18.094Z,1015.50
2023-01-13T10:07:25.218Z,1015.62
2023-01-13T10:12:32.465Z,1015.85
2023-01-13T10:17:39.694Z,1015.73
2023-01-13T10:22:46.865Z,1015.58
2023-01-13T10:27:54.094Z,1015.59
2023-01-13T10:33:01.377Z,1015.18
2023-01-13T10:38:08.599Z,1015.67
2023-01-13T10:43:15.852Z,1015.28
2023-01-13T10:48:23.129Z,1015.75
2023-01-13T10:53:30.311Z,1015.75
2023-01-13T10:58:37.532Z,1015.79
2023-01-13T11:03:44.761Z,1015.79
2023-01-13T11:08:51.914Z,1015.88
2023-01-13T11:13:59.142Z,1015.82
2023-01-13T11:19:06.304Z,1015.62
2023-01-13T11:24:13.538Z,1015.66
2023-01-13T11:29:20.725Z,1015.45
2023-01-13T11:34:27.975Z,1015.74
2023-01-13T11:39:35.209Z,1015.76
2023-01-13T11:44:42.455Z,1015.66
2023-01-13T11:49:49.662Z,1015.76
2023-01-13T11:54:56.801Z,1015.74
2023-01-13T12:00:03.970Z,1015.60
2023-01-13T12:05:11.196Z,1015.67
2023-01-13T12:10:18.447Z,1015.59
2023-01-13T12:15:25.528Z,1015.69
2023-01-13T12:20:32.998Z,1015.83
2023-01-13T12:25:40.177Z,1015.95
2023-01-13T12:30:47.335Z,1016.05
2023-01-13T12:35:54.600Z,1015.98
2023-01-13T12:41:01.798Z,1015.98
2023-01-13T12:46:09.033Z,1015.97
2023-01-13T12:51:18.249Z,1015.93
2023-01-13T12:56:23.415Z,1015.95
2023-01-13T13:01:30.719Z,1016.05
2023-01-13T13:06:37.780Z,1015.96
2023-01-13T13:11:44.952Z,1015.99
2023-01-13T13:16:52.347Z,1016.09
2023-01-13T13:21:59.559Z,1016.18
2023-01-13T13:27:06.738Z,1016.46
2023-01-13T13:32:13.960Z,1016.48
2023-01-13T13:37:21.198Z,1016.78
2023-01-13T13:42:28.363Z,1016.94
2023-01-13T13:47:35.530Z,1017.35
2023-01-13T13:52:42.779Z,1017.30
2023-01-13T13:57:50.286Z,1017.30
2023-01-13T14:02:57.504Z,1017.50
2023-01-13T14:08:04.725Z,1017.48
2023-01-13T14:13:11.893Z,1017.78
2023-01-13T14:18:19.041Z,1017.87
2023-01-13T14:23:26.259Z,1017.86
2023-01-13T14:28:33.343Z,1017.75
2023-01-13T14:33:40.498Z,1017.88
2023-01-13T14:38:47.737Z,1017.98
2023-01-13T14:43:54.939Z,1018.11
2023-01-13T14:49:02.108Z,1018.32
2023-01-13T14:54:09.286Z,1018.06
2023-01-13T14:59:16.392Z,1018.18
2023-01-13T15:04:23.661Z,1018.29
2023-01-13T15:09:30.897Z,1018.33
2023-01-13T15:14:38.088Z,1018.65
2023-01-13T15:19:45.283Z,1018.72
2023-01-13T15:24:52.468Z,1018.84
2023-01-13T15:29:59.700Z,1018.83
2023-01-13T15:35:06.935Z,1018.85
2023-01-13T15:40:14.131Z,1018.86
2023-01-13T15:45:21.374Z,1018.75
2023-01-13T15:50:28.620Z,1018.68
2023-01-13T15:55:35.806Z,1018.51
2023-01-13T16:00:43.074Z,1018.53
2023-01-13T16:05:50.231Z,1018.62
2023-01-13T16:10:57.507Z,1018.64
2023-01-13T16:16:04.679Z,1018.66
2023-01-13T16:21:11.923Z,1018.87
2023-01-13T16:26:19.115Z,1018.85
2023-01-13T16:31:26.352Z,1018.96
2023-01-13T16:36:33.631Z,1019.01
2023-01-13T16:41:40.891Z,1019.25
2023-01-13T16:46:48.652Z,1019.29
2023-01-13T16:51:55.859Z,1019.48
2023-01-13T16:57:03.129Z,1019.60
2023-01-13T17:02:10.276Z,1019.54
2023-01-13T17:07:17.805Z,1019.55
2023-01-13T17:12:25.281Z,1019.62
2023-01-13T17:17:32.588Z,1019.71
2023-01-13T17:22:39.824Z,1020.00
2023-01-13T17:27:47.050Z,1020.19
2023-01-13T17:32:54.177Z,1020.21
2023-01-13T17:38:01.721Z,1020.02
2023-01-13T17:43:09.169Z,1019.94
2023-01-13T17:48:16.392Z,1020.04
2023-01-13T17:53:23.597Z,1019.92
2023-01-13T17:58:31.076Z,1019.83
2023-01-13T18:03:38.385Z,1020.08
2023-01-13T18:08:45.797Z,1020.45
2023-01-13T18:13:53.092Z,1020.46
2023-01-13T18:19:00.273Z,1020.31
2023-01-13T18:24:07.781Z,1020.22
2023-01-13T18:29:15.188Z,1020.25
2023-01-13T18:34:22.400Z,1020.44
2023-01-13T18:39:29.661Z,1020.54
2023-01-13T18:44:37.675Z,1020.88
2023-01-13T18:49:44.830Z,1021.12
2023-01-13T18:54:52.345Z,1021.34
2023-01-13T18:59:59.974Z,1021.35
2023-01-13T19:05:07.311Z,1021.28
2023-01-13T19:10:14.563Z,1020.98
2023-01-13T19:15:21.799Z,1021.13
2023-01-13T19:20:28.990Z,1021.28
2023-01-13T19:25:36.277Z,1021.37
2023-01-13T19:30:43.828Z,1021.48
2023-01-13T19:35:51.431Z,1021.47
2023-01-13T19:40:58.922Z,1021.56
2023-01-13T19:46:08.098Z,1021.54
2023-01-13T19:51:15.265Z,1021.60
2023-01-13T19:56:22.802Z,1021.79
2023-01-13T20:01:30.673Z,1022.10
2023-01-13T20:06:38.021Z,1022.12
2023-01-13T20:11:45.453Z,1022.06
2023-01-13T20:16:52.918Z,1022.12
2023-01-13T20:22:01.479Z,1022.19
2023-01-13T20:27:08.855Z,1022.17
2023-01-13T20:32:16.231Z,1022.00
2023-01-13T20:37:23.548Z,1021.93
2023-01-13T20:42:31.018Z,1021.93
2023-01-13T20:47:38.656Z,1021.91
2023-01-13T20:52:46.160Z,1022.07
2023-01-13T20:57:54.673Z,1022.19
2023-01-13T21:03:01.973Z,1022.30
2023-01-13T21:08:09.140Z,1022.36
2023-01-13T21:13:16.303Z,1022.42
2023-01-13T21:18:23.643Z,1022.61
2023-01-13T21:23:30.821Z,1022.74
2023-01-13T21:28:38.029Z,1022.69
2023-01-13T21:33:45.429Z,1022.80
2023-01-13T21:38:52.637Z,1022.79
2023-01-13T21:43:59.889Z,1022.81
2023-01-13T21:49:07.136Z,1022.75
2023-01-13T21:54:14.342Z,1022.67
2023-01-13T21:59:21.554Z,1022.79
2023-01-13T22:04:28.779Z,1022.81
2023-01-13T22:09:35.982Z,1022.69
2023-01-13T22:14:43.179Z,1022.67
2023-01-13T22:19:50.394Z,1022.66
2023-01-13T22:24:57.642Z,1022.51
2023-01-13T22:30:04.866Z,1022.64
2023-01-13T22:35:12.084Z,1022.70
2023-01-13T22:40:19.308Z,1022.71
2023-01-13T22:45:26.543Z,1022.79
2023-01-13T22:50:34.451Z,1022.75
2023-01-13T22:55:41.664Z,1022.72
2023-01-13T23:00:48.827Z,1022.80
2023-01-13T23:05:56.085Z,1022.98
2023-01-13T23:11:03.257Z,1022.94
2023-01-13T23:16:10.502Z,1022.91
2023-01-13T23:21:17.679Z,1022.98
2023-01-13T23:26:24.877Z,1022.93
2023-01-13T23:31:32.106Z,1023.08
2023-01-13T23:36:39.377Z,1023.10
2023-01-13T23:41:46.564Z,1022.90
2023-01-13T23:46:53.798Z,1022.93
2023-01-13T23:52:01.024Z,1022.89
2023-01-13T23:57:08.201Z,1023.01
